sensor_id;sensor_type;location;lat;lon;timestamp;P1;durP1;ratioP1;P2;durP2;ratioP2
36829;SDS011;22767;47.328;9.640;2023-01-26T00:02:02;23.90;;;13.77;;
36829;SDS011;22767;47.328;9.640;2023-01-26T00:04:28;25.33;;;15.00;;
36829;SDS011;22767;47.328;9.640;2023-01-26T00:06:54;23.45;;;13.52;;
36829;SDS011;22767;47.328;9.640;2023-01-26T00:09:20;24.75;;;13.85;;
36829;SDS011;22767;47.328;9.640;2023-01-26T00:11:46;25.80;;;13.95;;
36829;SDS011;22767;47.328;9.640;2023-01-26T00:14:12;25.13;;;14.43;;
36829;SDS011;22767;47.328;9.640;2023-01-26T00:16:39;23.95;;;14.38;;
36829;SDS011;22767;47.328;9.640;2023-01-26T00:19:05;24.95;;;14.88;;
36829;SDS011;22767;47.328;9.640;2023-01-26T00:21:31;24.95;;;14.43;;
36829;SDS011;22767;47.328;9.640;2023-01-26T00:23:57;23.08;;;13.88;;
36829;SDS011;22767;47.328;9.640;2023-01-26T00:26:24;23.60;;;13.13;;
36829;SDS011;22767;47.328;9.640;2023-01-26T00:28:51;25.17;;;15.57;;
36829;SDS011;22767;47.328;9.640;2023-01-26T00:31:21;25.27;;;14.63;;
36829;SDS011;22767;47.328;9.640;2023-01-26T00:33:47;23.25;;;14.23;;
36829;SDS011;22767;47.328;9.640;2023-01-26T00:36:14;24.73;;;14.23;;
36829;SDS011;22767;47.328;9.640;2023-01-26T00:38:40;23.13;;;13.10;;
36829;SDS011;22767;47.328;9.640;2023-01-26T00:41:07;22.08;;;12.95;;
36829;SDS011;22767;47.328;9.640;2023-01-26T00:43:33;22.27;;;13.20;;
36829;SDS011;22767;47.328;9.640;2023-01-26T00:45:59;23.98;;;14.25;;
36829;SDS011;22767;47.328;9.640;2023-01-26T00:48:25;22.27;;;13.27;;
36829;SDS011;22767;47.328;9.640;2023-01-26T00:50:52;23.60;;;13.45;;
36829;SDS011;22767;47.328;9.640;2023-01-26T00:53:18;22.38;;;12.60;;
36829;SDS011;22767;47.328;9.640;2023-01-26T00:55:44;20.95;;;12.55;;
36829;SDS011;22767;47.328;9.640;2023-01-26T00:58:10;22.55;;;12.85;;
36829;SDS011;22767;47.328;9.640;2023-01-26T01:00:37;21.23;;;12.75;;
36829;SDS011;22767;47.328;9.640;2023-01-26T01:03:04;22.55;;;13.55;;
36829;SDS011;22767;47.328;9.640;2023-01-26T01:05:31;20.95;;;12.63;;
36829;SDS011;22767;47.328;9.640;2023-01-26T01:07:57;20.83;;;11.93;;
36829;SDS011;22767;47.328;9.640;2023-01-26T01:10:24;21.30;;;13.00;;
36829;SDS011;22767;47.328;9.640;2023-01-26T01:12:53;21.75;;;12.88;;
36829;SDS011;22767;47.328;9.640;2023-01-26T01:15:20;22.77;;;12.98;;
36829;SDS011;22767;47.328;9.640;2023-01-26T01:17:46;23.13;;;13.13;;
36829;SDS011;22767;47.328;9.640;2023-01-26T01:20:12;24.08;;;12.95;;
36829;SDS011;22767;47.328;9.640;2023-01-26T01:22:39;23.33;;;12.60;;
36829;SDS011;22767;47.328;9.640;2023-01-26T01:25:05;22.98;;;13.05;;
36829;SDS011;22767;47.328;9.640;2023-01-26T01:27:31;20.08;;;12.15;;
36829;SDS011;22767;47.328;9.640;2023-01-26T01:29:57;19.38;;;12.30;;
36829;SDS011;22767;47.328;9.640;2023-01-26T01:32:24;22.35;;;12.32;;
36829;SDS011;22767;47.328;9.640;2023-01-26T01:34:50;24.98;;;13.13;;
36829;SDS011;22767;47.328;9.640;2023-01-26T01:37:16;23.02;;;12.95;;
36829;SDS011;22767;47.328;9.640;2023-01-26T01:39:42;22.15;;;12.77;;
36829;SDS011;22767;47.328;9.640;2023-01-26T01:42:09;21.45;;;12.63;;
36829;SDS011;22767;47.328;9.640;2023-01-26T01:44:36;23.25;;;13.07;;
36829;SDS011;22767;47.328;9.640;2023-01-26T01:47:08;21.20;;;12.95;;
36829;SDS011;22767;47.328;9.640;2023-01-26T01:49:37;22.70;;;12.13;;
36829;SDS011;22767;47.328;9.640;2023-01-26T01:52:07;24.38;;;13.48;;
36829;SDS011;22767;47.328;9.640;2023-01-26T01:54:41;25.13;;;13.23;;
36829;SDS011;22767;47.328;9.640;2023-01-26T01:57:10;23.48;;;13.40;;
36829;SDS011;22767;47.328;9.640;2023-01-26T01:59:40;24.85;;;12.88;;
36829;SDS011;22767;47.328;9.640;2023-01-26T02:02:07;24.98;;;12.77;;
36829;SDS011;22767;47.328;9.640;2023-01-26T02:04:34;25.73;;;13.82;;
36829;SDS011;22767;47.328;9.640;2023-01-26T02:07:00;27.05;;;15.27;;
36829;SDS011;22767;47.328;9.640;2023-01-26T02:09:34;24.05;;;13.27;;
36829;SDS011;22767;47.328;9.640;2023-01-26T02:14:45;26.67;;;14.35;;
36829;SDS011;22767;47.328;9.640;2023-01-26T02:17:12;28.30;;;15.68;;
36829;SDS011;22767;47.328;9.640;2023-01-26T02:19:55;27.17;;;14.00;;
36829;SDS011;22767;47.328;9.640;2023-01-26T02:24:59;27.15;;;14.25;;
36829;SDS011;22767;47.328;9.640;2023-01-26T02:27:27;23.98;;;13.30;;
36829;SDS011;22767;47.328;9.640;2023-01-26T02:29:53;26.58;;;14.98;;
36829;SDS011;22767;47.328;9.640;2023-01-26T02:32:21;23.27;;;13.80;;
36829;SDS011;22767;47.328;9.640;2023-01-26T02:34:47;22.83;;;12.88;;
36829;SDS011;22767;47.328;9.640;2023-01-26T02:37:20;24.30;;;13.73;;
36829;SDS011;22767;47.328;9.640;2023-01-26T02:39:48;25.92;;;13.82;;
36829;SDS011;22767;47.328;9.640;2023-01-26T02:42:17;24.02;;;13.90;;
36829;SDS011;22767;47.328;9.640;2023-01-26T02:45:16;25.52;;;14.30;;
36829;SDS011;22767;47.328;9.640;2023-01-26T02:47:42;25.92;;;14.10;;
36829;SDS011;22767;47.328;9.640;2023-01-26T02:50:09;26.00;;;14.60;;
36829;SDS011;22767;47.328;9.640;2023-01-26T02:52:36;28.38;;;15.98;;
36829;SDS011;22767;47.328;9.640;2023-01-26T02:55:02;27.80;;;15.23;;
36829;SDS011;22767;47.328;9.640;2023-01-26T02:57:47;24.48;;;14.68;;
36829;SDS011;22767;47.328;9.640;2023-01-26T03:00:15;29.55;;;14.93;;
36829;SDS011;22767;47.328;9.640;2023-01-26T03:02:42;26.60;;;14.38;;
36829;SDS011;22767;47.328;9.640;2023-01-26T03:05:08;24.40;;;13.27;;
36829;SDS011;22767;47.328;9.640;2023-01-26T03:07:35;22.40;;;12.65;;
36829;SDS011;22767;47.328;9.640;2023-01-26T03:10:01;22.80;;;14.02;;
36829;SDS011;22767;47.328;9.640;2023-01-26T03:12:28;22.40;;;13.65;;
36829;SDS011;22767;47.328;9.640;2023-01-26T03:14:54;24.70;;;14.18;;
36829;SDS011;22767;47.328;9.640;2023-01-26T03:17:38;24.65;;;13.50;;
36829;SDS011;22767;47.328;9.640;2023-01-26T03:20:05;24.23;;;13.77;;
36829;SDS011;22767;47.328;9.640;2023-01-26T03:22:50;23.23;;;12.35;;
36829;SDS011;22767;47.328;9.640;2023-01-26T03:25:35;25.25;;;13.55;;
36829;SDS011;22767;47.328;9.640;2023-01-26T03:28:20;22.15;;;12.95;;
36829;SDS011;22767;47.328;9.640;2023-01-26T03:30:47;23.88;;;14.02;;
36829;SDS011;22767;47.328;9.640;2023-01-26T03:33:14;25.60;;;14.23;;
36829;SDS011;22767;47.328;9.640;2023-01-26T03:35:40;26.95;;;14.38;;
36829;SDS011;22767;47.328;9.640;2023-01-26T03:38:06;24.20;;;14.10;;
36829;SDS011;22767;47.328;9.640;2023-01-26T03:40:33;24.15;;;14.15;;
36829;SDS011;22767;47.328;9.640;2023-01-26T03:43:17;24.33;;;13.80;;
36829;SDS011;22767;47.328;9.640;2023-01-26T03:46:03;24.05;;;14.25;;
36829;SDS011;22767;47.328;9.640;2023-01-26T03:48:48;22.50;;;13.35;;
36829;SDS011;22767;47.328;9.640;2023-01-26T03:51:32;22.63;;;12.18;;
36829;SDS011;22767;47.328;9.640;2023-01-26T03:54:17;20.55;;;11.98;;
36829;SDS011;22767;47.328;9.640;2023-01-26T03:57:02;20.65;;;12.13;;
36829;SDS011;22767;47.328;9.640;2023-01-26T03:59:28;23.48;;;13.13;;
36829;SDS011;22767;47.328;9.640;2023-01-26T04:02:07;22.25;;;13.38;;
36829;SDS011;22767;47.328;9.640;2023-01-26T04:04:52;21.50;;;12.43;;
36829;SDS011;22767;47.328;9.640;2023-01-26T04:07:37;21.25;;;12.68;;
36829;SDS011;22767;47.328;9.640;2023-01-26T04:10:22;21.67;;;12.45;;
36829;SDS011;22767;47.328;9.640;2023-01-26T04:12:48;22.02;;;13.30;;
36829;SDS011;22767;47.328;9.640;2023-01-26T04:15:34;21.95;;;12.93;;
36829;SDS011;22767;47.328;9.640;2023-01-26T04:18:20;19.52;;;12.32;;
36829;SDS011;22767;47.328;9.640;2023-01-26T04:21:05;20.67;;;12.90;;
36829;SDS011;22767;47.328;9.640;2023-01-26T04:23:51;22.50;;;12.95;;
36829;SDS011;22767;47.328;9.640;2023-01-26T04:26:20;16.73;;;11.25;;
36829;SDS011;22767;47.328;9.640;2023-01-26T04:28:46;20.77;;;11.68;;
36829;SDS011;22767;47.328;9.640;2023-01-26T04:31:13;22.75;;;13.27;;
36829;SDS011;22767;47.328;9.640;2023-01-26T04:33:40;21.17;;;13.20;;
36829;SDS011;22767;47.328;9.640;2023-01-26T04:36:07;19.33;;;12.50;;
36829;SDS011;22767;47.328;9.640;2023-01-26T04:38:33;22.08;;;14.32;;
36829;SDS011;22767;47.328;9.640;2023-01-26T04:41:00;20.88;;;14.50;;
36829;SDS011;22767;47.328;9.640;2023-01-26T04:43:26;22.17;;;13.85;;
36829;SDS011;22767;47.328;9.640;2023-01-26T04:45:56;20.33;;;13.02;;
36829;SDS011;22767;47.328;9.640;2023-01-26T04:48:23;19.20;;;11.98;;
36829;SDS011;22767;47.328;9.640;2023-01-26T04:50:52;21.08;;;12.68;;
36829;SDS011;22767;47.328;9.640;2023-01-26T04:53:18;18.95;;;11.05;;
36829;SDS011;22767;47.328;9.640;2023-01-26T04:55:45;17.02;;;11.10;;
36829;SDS011;22767;47.328;9.640;2023-01-26T04:58:11;17.65;;;10.93;;
36829;SDS011;22767;47.328;9.640;2023-01-26T05:00:37;21.55;;;12.23;;
36829;SDS011;22767;47.328;9.640;2023-01-26T05:03:03;18.65;;;11.43;;
36829;SDS011;22767;47.328;9.640;2023-01-26T05:05:29;20.60;;;11.65;;
36829;SDS011;22767;47.328;9.640;2023-01-26T05:07:55;20.95;;;11.63;;
36829;SDS011;22767;47.328;9.640;2023-01-26T05:10:21;20.58;;;12.10;;
36829;SDS011;22767;47.328;9.640;2023-01-26T05:12:48;23.45;;;12.98;;
36829;SDS011;22767;47.328;9.640;2023-01-26T05:15:14;20.73;;;11.73;;
36829;SDS011;22767;47.328;9.640;2023-01-26T05:17:40;18.92;;;11.95;;
36829;SDS011;22767;47.328;9.640;2023-01-26T05:20:06;20.90;;;12.07;;
36829;SDS011;22767;47.328;9.640;2023-01-26T05:22:33;19.00;;;11.80;;
36829;SDS011;22767;47.328;9.640;2023-01-26T05:24:59;20.15;;;12.18;;
36829;SDS011;22767;47.328;9.640;2023-01-26T05:27:25;20.20;;;12.68;;
36829;SDS011;22767;47.328;9.640;2023-01-26T05:29:52;22.73;;;13.73;;
36829;SDS011;22767;47.328;9.640;2023-01-26T05:32:19;21.80;;;13.57;;
36829;SDS011;22767;47.328;9.640;2023-01-26T05:34:46;23.00;;;14.00;;
36829;SDS011;22767;47.328;9.640;2023-01-26T05:37:12;22.85;;;13.48;;
36829;SDS011;22767;47.328;9.640;2023-01-26T05:39:38;21.65;;;13.38;;
36829;SDS011;22767;47.328;9.640;2023-01-26T05:42:04;23.65;;;14.43;;
36829;SDS011;22767;47.328;9.640;2023-01-26T05:44:30;24.10;;;13.88;;
36829;SDS011;22767;47.328;9.640;2023-01-26T05:46:56;25.02;;;15.52;;
36829;SDS011;22767;47.328;9.640;2023-01-26T05:49:22;25.10;;;15.07;;
36829;SDS011;22767;47.328;9.640;2023-01-26T05:51:48;29.58;;;16.30;;
36829;SDS011;22767;47.328;9.640;2023-01-26T05:54:15;27.33;;;15.75;;
36829;SDS011;22767;47.328;9.640;2023-01-26T05:56:41;26.48;;;14.95;;
36829;SDS011;22767;47.328;9.640;2023-01-26T05:59:07;26.42;;;15.25;;
36829;SDS011;22767;47.328;9.640;2023-01-26T06:01:33;24.75;;;14.77;;
36829;SDS011;22767;47.328;9.640;2023-01-26T06:03:59;29.38;;;16.52;;
36829;SDS011;22767;47.328;9.640;2023-01-26T06:06:26;26.83;;;15.15;;
36829;SDS011;22767;47.328;9.640;2023-01-26T06:08:52;25.10;;;14.70;;
36829;SDS011;22767;47.328;9.640;2023-01-26T06:11:18;26.65;;;16.17;;
36829;SDS011;22767;47.328;9.640;2023-01-26T06:13:44;29.38;;;15.63;;
36829;SDS011;22767;47.328;9.640;2023-01-26T06:16:10;24.92;;;15.00;;
36829;SDS011;22767;47.328;9.640;2023-01-26T06:18:36;26.10;;;15.10;;
36829;SDS011;22767;47.328;9.640;2023-01-26T06:21:02;24.33;;;14.30;;
36829;SDS011;22767;47.328;9.640;2023-01-26T06:23:28;23.33;;;14.00;;
36829;SDS011;22767;47.328;9.640;2023-01-26T06:25:58;24.35;;;14.07;;
36829;SDS011;22767;47.328;9.640;2023-01-26T06:28:24;25.80;;;14.95;;
36829;SDS011;22767;47.328;9.640;2023-01-26T06:30:50;30.13;;;16.58;;
36829;SDS011;22767;47.328;9.640;2023-01-26T06:33:17;25.45;;;15.23;;
36829;SDS011;22767;47.328;9.640;2023-01-26T06:35:43;24.17;;;14.00;;
36829;SDS011;22767;47.328;9.640;2023-01-26T06:38:09;24.15;;;13.80;;
36829;SDS011;22767;47.328;9.640;2023-01-26T06:40:36;27.60;;;14.93;;
36829;SDS011;22767;47.328;9.640;2023-01-26T06:43:02;24.00;;;13.77;;
36829;SDS011;22767;47.328;9.640;2023-01-26T06:45:28;23.90;;;13.73;;
36829;SDS011;22767;47.328;9.640;2023-01-26T06:47:54;23.90;;;14.75;;
36829;SDS011;22767;47.328;9.640;2023-01-26T06:50:21;23.08;;;14.13;;
36829;SDS011;22767;47.328;9.640;2023-01-26T06:52:50;24.08;;;13.68;;
36829;SDS011;22767;47.328;9.640;2023-01-26T06:55:28;21.80;;;13.18;;
36829;SDS011;22767;47.328;9.640;2023-01-26T06:57:56;23.30;;;13.88;;
36829;SDS011;22767;47.328;9.640;2023-01-26T07:00:23;24.60;;;14.70;;
36829;SDS011;22767;47.328;9.640;2023-01-26T07:02:49;26.35;;;14.82;;
36829;SDS011;22767;47.328;9.640;2023-01-26T07:05:15;25.88;;;15.05;;
36829;SDS011;22767;47.328;9.640;2023-01-26T07:07:41;27.33;;;14.68;;
36829;SDS011;22767;47.328;9.640;2023-01-26T07:10:08;27.45;;;15.50;;
36829;SDS011;22767;47.328;9.640;2023-01-26T07:12:38;27.25;;;16.17;;
36829;SDS011;22767;47.328;9.640;2023-01-26T07:15:05;25.55;;;15.52;;
36829;SDS011;22767;47.328;9.640;2023-01-26T07:17:31;31.35;;;18.20;;
36829;SDS011;22767;47.328;9.640;2023-01-26T07:19:57;37.25;;;20.35;;
36829;SDS011;22767;47.328;9.640;2023-01-26T07:22:23;33.05;;;18.98;;
36829;SDS011;22767;47.328;9.640;2023-01-26T07:24:49;29.95;;;17.13;;
36829;SDS011;22767;47.328;9.640;2023-01-26T07:27:15;29.83;;;17.63;;
36829;SDS011;22767;47.328;9.640;2023-01-26T07:29:42;29.10;;;17.08;;
36829;SDS011;22767;47.328;9.640;2023-01-26T07:32:08;26.92;;;16.40;;
36829;SDS011;22767;47.328;9.640;2023-01-26T07:34:34;27.10;;;15.55;;
36829;SDS011;22767;47.328;9.640;2023-01-26T07:37:00;27.20;;;15.35;;
36829;SDS011;22767;47.328;9.640;2023-01-26T07:39:27;25.38;;;15.63;;
36829;SDS011;22767;47.328;9.640;2023-01-26T07:41:53;24.30;;;14.52;;
36829;SDS011;22767;47.328;9.640;2023-01-26T07:44:19;26.75;;;15.02;;
36829;SDS011;22767;47.328;9.640;2023-01-26T07:46:45;24.10;;;14.38;;
36829;SDS011;22767;47.328;9.640;2023-01-26T07:49:11;21.95;;;13.80;;
36829;SDS011;22767;47.328;9.640;2023-01-26T07:51:37;24.30;;;13.85;;
36829;SDS011;22767;47.328;9.640;2023-01-26T07:54:04;26.13;;;14.93;;
36829;SDS011;22767;47.328;9.640;2023-01-26T07:56:30;23.77;;;14.10;;
36829;SDS011;22767;47.328;9.640;2023-01-26T07:58:57;23.05;;;14.20;;
36829;SDS011;22767;47.328;9.640;2023-01-26T08:01:23;22.17;;;13.25;;
36829;SDS011;22767;47.328;9.640;2023-01-26T08:03:50;22.83;;;13.75;;
36829;SDS011;22767;47.328;9.640;2023-01-26T08:06:17;21.70;;;13.63;;
36829;SDS011;22767;47.328;9.640;2023-01-26T08:08:44;22.60;;;12.85;;
36829;SDS011;22767;47.328;9.640;2023-01-26T08:11:15;24.00;;;13.63;;
36829;SDS011;22767;47.328;9.640;2023-01-26T08:13:41;20.65;;;12.43;;
36829;SDS011;22767;47.328;9.640;2023-01-26T08:16:09;21.35;;;12.23;;
36829;SDS011;22767;47.328;9.640;2023-01-26T08:18:42;21.58;;;12.65;;
36829;SDS011;22767;47.328;9.640;2023-01-26T08:21:09;23.63;;;12.70;;
36829;SDS011;22767;47.328;9.640;2023-01-26T08:23:35;21.98;;;12.18;;
36829;SDS011;22767;47.328;9.640;2023-01-26T08:26:02;21.42;;;12.18;;
36829;SDS011;22767;47.328;9.640;2023-01-26T08:28:29;21.13;;;11.63;;
36829;SDS011;22767;47.328;9.640;2023-01-26T08:30:55;19.50;;;11.90;;
36829;SDS011;22767;47.328;9.640;2023-01-26T08:33:22;19.92;;;11.73;;
36829;SDS011;22767;47.328;9.640;2023-01-26T08:35:48;18.58;;;11.05;;
36829;SDS011;22767;47.328;9.640;2023-01-26T08:38:15;19.55;;;11.43;;
36829;SDS011;22767;47.328;9.640;2023-01-26T08:40:41;16.40;;;10.48;;
36829;SDS011;22767;47.328;9.640;2023-01-26T08:43:07;16.45;;;9.60;;
36829;SDS011;22767;47.328;9.640;2023-01-26T08:45:33;15.63;;;9.15;;
36829;SDS011;22767;47.328;9.640;2023-01-26T08:47:59;14.88;;;9.52;;
36829;SDS011;22767;47.328;9.640;2023-01-26T08:50:25;17.52;;;9.88;;
36829;SDS011;22767;47.328;9.640;2023-01-26T08:52:53;16.95;;;10.05;;
36829;SDS011;22767;47.328;9.640;2023-01-26T08:55:20;22.10;;;11.43;;
36829;SDS011;22767;47.328;9.640;2023-01-26T08:57:50;20.00;;;11.10;;
36829;SDS011;22767;47.328;9.640;2023-01-26T09:00:16;24.63;;;12.48;;
36829;SDS011;22767;47.328;9.640;2023-01-26T09:02:42;20.67;;;11.98;;
36829;SDS011;22767;47.328;9.640;2023-01-26T09:05:08;21.85;;;12.07;;
36829;SDS011;22767;47.328;9.640;2023-01-26T09:07:35;23.42;;;11.90;;
36829;SDS011;22767;47.328;9.640;2023-01-26T09:10:01;34.28;;;16.52;;
36829;SDS011;22767;47.328;9.640;2023-01-26T09:12:27;32.85;;;16.02;;
36829;SDS011;22767;47.328;9.640;2023-01-26T09:14:53;29.58;;;15.02;;
36829;SDS011;22767;47.328;9.640;2023-01-26T09:17:19;29.00;;;14.05;;
36829;SDS011;22767;47.328;9.640;2023-01-26T09:19:46;26.40;;;13.30;;
36829;SDS011;22767;47.328;9.640;2023-01-26T09:22:12;22.70;;;12.10;;
36829;SDS011;22767;47.328;9.640;2023-01-26T09:24:38;19.45;;;11.57;;
36829;SDS011;22767;47.328;9.640;2023-01-26T09:27:04;20.90;;;11.18;;
36829;SDS011;22767;47.328;9.640;2023-01-26T09:29:30;21.05;;;11.65;;
36829;SDS011;22767;47.328;9.640;2023-01-26T09:31:57;20.67;;;11.15;;
36829;SDS011;22767;47.328;9.640;2023-01-26T09:34:23;22.10;;;10.63;;
36829;SDS011;22767;47.328;9.640;2023-01-26T09:36:49;20.52;;;11.48;;
36829;SDS011;22767;47.328;9.640;2023-01-26T09:39:16;20.95;;;12.10;;
36829;SDS011;22767;47.328;9.640;2023-01-26T09:41:46;19.40;;;11.90;;
36829;SDS011;22767;47.328;9.640;2023-01-26T09:44:15;21.15;;;11.95;;
36829;SDS011;22767;47.328;9.640;2023-01-26T09:49:25;20.27;;;12.18;;
36829;SDS011;22767;47.328;9.640;2023-01-26T09:52:09;24.95;;;13.88;;
36829;SDS011;22767;47.328;9.640;2023-01-26T09:54:39;21.33;;;12.15;;
36829;SDS011;22767;47.328;9.640;2023-01-26T09:57:13;20.23;;;11.80;;
36829;SDS011;22767;47.328;9.640;2023-01-26T09:59:43;21.58;;;11.73;;
36829;SDS011;22767;47.328;9.640;2023-01-26T10:04:41;21.13;;;12.98;;
36829;SDS011;22767;47.328;9.640;2023-01-26T10:07:09;22.50;;;13.13;;
36829;SDS011;22767;47.328;9.640;2023-01-26T10:09:37;19.25;;;12.05;;
36829;SDS011;22767;47.328;9.640;2023-01-26T10:12:05;21.52;;;12.45;;
36829;SDS011;22767;47.328;9.640;2023-01-26T10:14:36;23.85;;;14.10;;
36829;SDS011;22767;47.328;9.640;2023-01-26T10:17:04;20.05;;;12.27;;
36829;SDS011;22767;47.328;9.640;2023-01-26T10:19:36;25.50;;;14.70;;
36829;SDS011;22767;47.328;9.640;2023-01-26T10:24:30;27.90;;;15.35;;
36829;SDS011;22767;47.328;9.640;2023-01-26T10:26:58;27.58;;;15.50;;
36829;SDS011;22767;47.328;9.640;2023-01-26T10:29:25;28.20;;;16.08;;
36829;SDS011;22767;47.328;9.640;2023-01-26T10:31:51;27.05;;;14.90;;
36829;SDS011;22767;47.328;9.640;2023-01-26T10:34:22;23.70;;;13.50;;
36829;SDS011;22767;47.328;9.640;2023-01-26T10:36:49;24.30;;;14.80;;
36829;SDS011;22767;47.328;9.640;2023-01-26T10:39:18;26.55;;;13.85;;
36829;SDS011;22767;47.328;9.640;2023-01-26T10:42:02;26.10;;;15.40;;
36829;SDS011;22767;47.328;9.640;2023-01-26T10:44:33;31.42;;;16.50;;
36829;SDS011;22767;47.328;9.640;2023-01-26T10:49:31;29.17;;;17.13;;
36829;SDS011;22767;47.328;9.640;2023-01-26T10:52:30;32.55;;;17.25;;
36829;SDS011;22767;47.328;9.640;2023-01-26T10:55:08;26.10;;;15.32;;
36829;SDS011;22767;47.328;9.640;2023-01-26T10:57:37;29.17;;;16.38;;
36829;SDS011;22767;47.328;9.640;2023-01-26T11:02:47;30.15;;;16.77;;
36829;SDS011;22767;47.328;9.640;2023-01-26T11:05:16;32.25;;;17.88;;
36829;SDS011;22767;47.328;9.640;2023-01-26T11:07:44;31.38;;;16.83;;
36829;SDS011;22767;47.328;9.640;2023-01-26T11:23:36;26.90;;;16.65;;
36829;SDS011;22767;47.328;9.640;2023-01-26T11:33:28;31.23;;;16.85;;
36829;SDS011;22767;47.328;9.640;2023-01-26T11:59:02;27.23;;;16.30;;
36829;SDS011;22767;47.328;9.640;2023-01-26T12:01:35;28.63;;;16.70;;
36829;SDS011;22767;47.328;9.640;2023-01-26T12:04:03;31.75;;;17.25;;
36829;SDS011;22767;47.328;9.640;2023-01-26T12:06:33;28.08;;;16.30;;
36829;SDS011;22767;47.328;9.640;2023-01-26T12:09:43;26.92;;;16.13;;
36829;SDS011;22767;47.328;9.640;2023-01-26T12:25:26;35.28;;;17.35;;
36829;SDS011;22767;47.328;9.640;2023-01-26T12:28:03;30.05;;;17.10;;
36829;SDS011;22767;47.328;9.640;2023-01-26T12:30:35;30.30;;;16.90;;
36829;SDS011;22767;47.328;9.640;2023-01-26T12:33:07;29.63;;;16.52;;
36829;SDS011;22767;47.328;9.640;2023-01-26T12:38:10;31.58;;;17.30;;
36829;SDS011;22767;47.328;9.640;2023-01-26T12:43:29;31.42;;;18.70;;
36829;SDS011;22767;47.328;9.640;2023-01-26T12:46:00;28.60;;;17.33;;
36829;SDS011;22767;47.328;9.640;2023-01-26T12:51:07;32.38;;;18.02;;
36829;SDS011;22767;47.328;9.640;2023-01-26T12:56:27;33.80;;;17.83;;
36829;SDS011;22767;47.328;9.640;2023-01-26T12:58:55;29.67;;;17.00;;
36829;SDS011;22767;47.328;9.640;2023-01-26T13:01:24;31.83;;;17.63;;
36829;SDS011;22767;47.328;9.640;2023-01-26T13:04:01;31.08;;;17.50;;
36829;SDS011;22767;47.328;9.640;2023-01-26T13:06:29;31.33;;;17.25;;
36829;SDS011;22767;47.328;9.640;2023-01-26T13:12:12;30.15;;;16.67;;
36829;SDS011;22767;47.328;9.640;2023-01-26T13:16:56;30.45;;;16.17;;
36829;SDS011;22767;47.328;9.640;2023-01-26T13:24:58;31.80;;;17.33;;
36829;SDS011;22767;47.328;9.640;2023-01-26T13:27:39;30.77;;;16.33;;
36829;SDS011;22767;47.328;9.640;2023-01-26T13:35:16;26.40;;;16.33;;
36829;SDS011;22767;47.328;9.640;2023-01-26T13:37:47;28.40;;;16.40;;
36829;SDS011;22767;47.328;9.640;2023-01-26T13:40:19;29.58;;;17.42;;
36829;SDS011;22767;47.328;9.640;2023-01-26T13:48:00;31.85;;;18.02;;
36829;SDS011;22767;47.328;9.640;2023-01-26T13:50:29;30.75;;;16.75;;
36829;SDS011;22767;47.328;9.640;2023-01-26T13:52:56;32.83;;;16.15;;
36829;SDS011;22767;47.328;9.640;2023-01-26T13:55:26;29.33;;;16.80;;
36829;SDS011;22767;47.328;9.640;2023-01-26T14:00:37;27.50;;;15.88;;
36829;SDS011;22767;47.328;9.640;2023-01-26T14:03:03;31.50;;;17.15;;
36829;SDS011;22767;47.328;9.640;2023-01-26T14:05:30;29.40;;;15.55;;
36829;SDS011;22767;47.328;9.640;2023-01-26T14:07:56;26.92;;;15.57;;
36829;SDS011;22767;47.328;9.640;2023-01-26T14:10:24;28.20;;;15.52;;
36829;SDS011;22767;47.328;9.640;2023-01-26T14:12:52;27.05;;;16.00;;
36829;SDS011;22767;47.328;9.640;2023-01-26T14:15:24;27.33;;;15.50;;
36829;SDS011;22767;47.328;9.640;2023-01-26T14:20:27;26.63;;;15.02;;
36829;SDS011;22767;47.328;9.640;2023-01-26T14:25:36;31.63;;;14.63;;
36829;SDS011;22767;47.328;9.640;2023-01-26T14:28:03;26.42;;;14.60;;
36829;SDS011;22767;47.328;9.640;2023-01-26T14:30:30;28.70;;;15.40;;
36829;SDS011;22767;47.328;9.640;2023-01-26T14:33:10;26.50;;;14.25;;
36829;SDS011;22767;47.328;9.640;2023-01-26T14:35:37;26.30;;;14.25;;
36829;SDS011;22767;47.328;9.640;2023-01-26T14:38:04;28.67;;;14.95;;
36829;SDS011;22767;47.328;9.640;2023-01-26T14:40:31;26.38;;;14.57;;
36829;SDS011;22767;47.328;9.640;2023-01-26T14:42:57;26.90;;;14.70;;
36829;SDS011;22767;47.328;9.640;2023-01-26T14:45:32;27.52;;;15.23;;
36829;SDS011;22767;47.328;9.640;2023-01-26T14:48:00;24.98;;;14.45;;
36829;SDS011;22767;47.328;9.640;2023-01-26T14:50:28;26.42;;;14.00;;
36829;SDS011;22767;47.328;9.640;2023-01-26T14:52:57;27.08;;;14.32;;
36829;SDS011;22767;47.328;9.640;2023-01-26T14:55:27;23.38;;;13.98;;
36829;SDS011;22767;47.328;9.640;2023-01-26T14:57:55;23.40;;;13.65;;
36829;SDS011;22767;47.328;9.640;2023-01-26T15:00:26;22.77;;;13.48;;
36829;SDS011;22767;47.328;9.640;2023-01-26T15:02:53;23.52;;;13.20;;
36829;SDS011;22767;47.328;9.640;2023-01-26T15:05:21;28.25;;;13.77;;
36829;SDS011;22767;47.328;9.640;2023-01-26T15:13:00;24.13;;;13.57;;
36829;SDS011;22767;47.328;9.640;2023-01-26T15:15:27;26.92;;;14.18;;
36829;SDS011;22767;47.328;9.640;2023-01-26T15:18:01;24.95;;;13.48;;
36829;SDS011;22767;47.328;9.640;2023-01-26T15:22:54;24.08;;;13.30;;
36829;SDS011;22767;47.328;9.640;2023-01-26T15:25:24;25.58;;;14.05;;
36829;SDS011;22767;47.328;9.640;2023-01-26T15:27:51;26.23;;;13.35;;
36829;SDS011;22767;47.328;9.640;2023-01-26T15:30:19;25.33;;;13.68;;
36829;SDS011;22767;47.328;9.640;2023-01-26T15:32:46;26.13;;;14.13;;
36829;SDS011;22767;47.328;9.640;2023-01-26T15:35:16;24.73;;;14.10;;
36829;SDS011;22767;47.328;9.640;2023-01-26T15:37:43;22.55;;;13.20;;
36829;SDS011;22767;47.328;9.640;2023-01-26T15:40:09;25.05;;;13.18;;
36829;SDS011;22767;47.328;9.640;2023-01-26T15:42:36;24.20;;;13.65;;
36829;SDS011;22767;47.328;9.640;2023-01-26T15:45:04;24.95;;;14.35;;
36829;SDS011;22767;47.328;9.640;2023-01-26T15:47:31;24.08;;;14.00;;
36829;SDS011;22767;47.328;9.640;2023-01-26T15:49:57;25.52;;;13.70;;
36829;SDS011;22767;47.328;9.640;2023-01-26T15:52:24;24.10;;;13.40;;
36829;SDS011;22767;47.328;9.640;2023-01-26T15:54:54;22.80;;;12.95;;
36829;SDS011;22767;47.328;9.640;2023-01-26T15:57:20;24.77;;;14.15;;
36829;SDS011;22767;47.328;9.640;2023-01-26T15:59:46;25.63;;;13.27;;
36829;SDS011;22767;47.328;9.640;2023-01-26T16:02:13;24.73;;;13.70;;
36829;SDS011;22767;47.328;9.640;2023-01-26T16:04:40;27.67;;;15.15;;
36829;SDS011;22767;47.328;9.640;2023-01-26T16:07:13;26.92;;;15.75;;
36829;SDS011;22767;47.328;9.640;2023-01-26T16:09:40;30.48;;;15.70;;
36829;SDS011;22767;47.328;9.640;2023-01-26T16:12:16;28.25;;;14.52;;
36829;SDS011;22767;47.328;9.640;2023-01-26T16:14:43;38.15;;;22.95;;
36829;SDS011;22767;47.328;9.640;2023-01-26T16:17:12;37.50;;;24.40;;
36829;SDS011;22767;47.328;9.640;2023-01-26T16:19:40;35.33;;;19.33;;
36829;SDS011;22767;47.328;9.640;2023-01-26T16:22:08;32.95;;;18.40;;
36829;SDS011;22767;47.328;9.640;2023-01-26T16:24:35;30.17;;;17.52;;
36829;SDS011;22767;47.328;9.640;2023-01-26T16:27:01;29.80;;;15.63;;
36829;SDS011;22767;47.328;9.640;2023-01-26T16:29:27;32.35;;;16.58;;
36829;SDS011;22767;47.328;9.640;2023-01-26T16:31:55;30.52;;;16.85;;
36829;SDS011;22767;47.328;9.640;2023-01-26T16:34:21;28.90;;;15.55;;